createdAt,value
2019-04-25T00:02:40.828Z,15.50
2019-04-25T00:07:37.312Z,15.30
2019-04-25T00:12:28.713Z,15.20
2019-04-25T00:17:22.427Z,15.20
2019-04-25T00:22:16.379Z,15.00
2019-04-25T00:27:07.019Z,14.90
2019-04-25T00:32:03.763Z,14.70
2019-04-25T00:36:56.207Z,14.40
2019-04-25T00:42:12.241Z,14.30
2019-04-25T00:47:31.561Z,14.30
2019-04-25T00:52:17.236Z,14.40
2019-04-25T00:57:02.244Z,14.40
2019-04-25T01:02:13.761Z,14.30
2019-04-25T01:07:04.911Z,14.00
2019-04-25T01:11:53.178Z,13.70
2019-04-25T01:16:51.112Z,13.60
2019-04-25T01:21:49.269Z,13.60
2019-04-25T01:26:47.943Z,13.40
2019-04-25T01:31:36.981Z,13.10
2019-04-25T01:36:55.021Z,12.90
2019-04-25T01:42:08.450Z,12.70
2019-04-25T01:47:15.767Z,12.40
2019-04-25T01:52:14.512Z,12.30
2019-04-25T01:57:11.445Z,12.20
2019-04-25T02:02:25.199Z,12.00
2019-04-25T02:12:37.763Z,12.00
2019-04-25T02:18:27.389Z,11.90
2019-04-25T02:23:40.889Z,11.60
2019-04-25T02:34:37.917Z,11.10
2019-04-25T02:40:06.811Z,10.80
2019-04-25T02:51:01.266Z,10.80
2019-04-25T02:56:08.022Z,10.90
2019-04-25T03:01:03.494Z,11.10
2019-04-25T03:05:54.934Z,11.10
2019-04-25T03:10:54.490Z,10.90
2019-04-25T03:16:00.716Z,10.70
2019-04-25T03:21:13.525Z,10.70
2019-04-25T03:25:55.227Z,10.60
2019-04-25T03:31:02.124Z,10.70
2019-04-25T03:36:09.971Z,10.80
2019-04-25T03:40:47.714Z,10.70
2019-04-25T03:45:36.521Z,10.80
2019-04-25T03:50:26.599Z,10.90
2019-04-25T03:55:10.832Z,10.90
2019-04-25T03:59:55.556Z,10.90
2019-04-25T04:04:45.280Z,10.80
2019-04-25T04:09:37.543Z,11.00
2019-04-25T04:14:28.088Z,10.90
2019-04-25T04:19:20.824Z,10.80
2019-04-25T04:24:20.419Z,10.80
2019-04-25T04:29:28.455Z,11.00
2019-04-25T04:34:14.670Z,11.30
2019-04-25T04:38:59.742Z,11.50
2019-04-25T04:43:47.629Z,11.70
2019-04-25T04:48:43.781Z,11.80
2019-04-25T04:53:35.911Z,12.00
2019-04-25T04:58:25.133Z,12.20
2019-04-25T05:03:32.053Z,12.20
2019-04-25T05:08:29.250Z,12.50
2019-04-25T05:13:18.652Z,12.70
2019-04-25T05:18:08.190Z,13.00
2019-04-25T05:22:55.264Z,13.20
2019-04-25T05:27:57.743Z,13.30
2019-04-25T05:32:26.953Z,13.40
2019-04-25T05:37:14.337Z,13.60
2019-04-25T05:42:21.045Z,13.90
2019-04-25T05:47:07.332Z,14.20
2019-04-25T05:52:04.539Z,14.40
2019-04-25T05:56:49.785Z,14.70
2019-04-25T06:01:46.236Z,15.00
2019-04-25T06:06:51.185Z,15.20
2019-04-25T06:11:53.335Z,15.50
2019-04-25T06:16:43.272Z,15.70
2019-04-25T06:21:28.198Z,16.00
2019-04-25T06:26:22.540Z,16.20
2019-04-25T06:31:09.902Z,16.30
2019-04-25T06:36:04.307Z,16.60
2019-04-25T06:40:53.616Z,17.00
2019-04-25T06:45:56.519Z,17.30
2019-04-25T06:50:43.710Z,17.60
2019-04-25T06:55:34.329Z,17.80
2019-04-25T07:01:04.174Z,18.30
2019-04-25T07:06:00.145Z,18.40
2019-04-25T07:10:58.136Z,18.50
2019-04-25T07:15:50.652Z,18.80
2019-04-25T07:20:53.360Z,19.20
2019-04-25T07:25:45.228Z,19.60
2019-04-25T07:30:54.546Z,19.70
2019-04-25T07:35:43.433Z,20.20
2019-04-25T07:40:28.353Z,20.60
2019-04-25T07:45:14.088Z,21.00
2019-04-25T07:49:58.935Z,21.50
2019-04-25T07:54:45.166Z,21.40
2019-04-25T07:59:30.978Z,21.40
2019-04-25T08:04:16.004Z,21.80
2019-04-25T08:09:00.954Z,21.70
2019-04-25T08:14:04.492Z,21.80
2019-04-25T08:18:50.439Z,22.60
2019-04-25T08:23:37.551Z,23.00
2019-04-25T08:28:23.571Z,22.60
2019-04-25T08:33:08.531Z,23.10
2019-04-25T08:37:53.766Z,23.10
2019-04-25T08:42:38.578Z,23.40
2019-04-25T08:47:58.282Z,22.70
2019-04-25T08:52:55.163Z,23.00
2019-04-25T08:57:58.643Z,23.10
2019-04-25T09:02:54.619Z,24.10
2019-04-25T09:07:46.743Z,24.90
2019-04-25T09:12:35.524Z,25.30
2019-04-25T09:17:20.179Z,25.20
2019-04-25T09:22:05.249Z,25.10
2019-04-25T09:26:54.090Z,25.20
2019-04-25T09:31:44.830Z,25.60
2019-04-25T09:36:30.847Z,26.30
2019-04-25T09:41:19.163Z,25.90
2019-04-25T09:46:09.984Z,26.60
2019-04-25T09:51:06.874Z,26.70
2019-04-25T09:56:08.175Z,26.90
2019-04-25T10:01:03.795Z,27.40
2019-04-25T10:05:51.102Z,27.60
2019-04-25T10:10:39.124Z,26.60
2019-04-25T10:15:54.663Z,27.10
2019-04-25T10:20:41.133Z,27.50
2019-04-25T10:25:27.431Z,27.40
2019-04-25T10:30:17.799Z,27.50
2019-04-25T10:35:02.022Z,27.70
2019-04-25T10:39:47.209Z,28.00
2019-04-25T10:44:33.690Z,27.80
2019-04-25T10:49:20.129Z,28.20
2019-04-25T10:54:05.940Z,28.20
2019-04-25T10:58:51.180Z,27.70
2019-04-25T11:03:44.211Z,28.00
2019-04-25T11:08:30.809Z,28.10
2019-04-25T11:13:35.692Z,28.50
2019-04-25T11:18:20.949Z,28.60
2019-04-25T11:23:13.873Z,28.70
2019-04-25T11:27:58.797Z,29.20
2019-04-25T11:32:45.192Z,29.20
2019-04-25T11:37:31.884Z,28.80
2019-04-25T11:42:17.541Z,29.10
2019-04-25T11:47:03.840Z,28.90
2019-04-25T11:51:52.428Z,29.00
2019-04-25T11:56:37.595Z,28.80
2019-04-25T12:01:24.357Z,28.90
2019-04-25T12:06:11.250Z,29.10
2019-04-25T12:10:56.074Z,29.10
2019-04-25T12:15:41.177Z,28.70
2019-04-25T12:20:28.931Z,29.10
2019-04-25T12:25:15.066Z,29.20
2019-04-25T12:30:05.138Z,28.80
2019-04-25T12:34:50.083Z,29.00
2019-04-25T12:39:34.932Z,29.50
2019-04-25T12:44:48.805Z,29.80
2019-04-25T12:49:34.511Z,29.50
2019-04-25T12:54:19.780Z,29.80
2019-04-25T12:59:04.740Z,29.60
2019-04-25T13:03:51.329Z,29.10
2019-04-25T13:08:36.362Z,29.00
2019-04-25T13:13:22.270Z,29.10
2019-04-25T13:18:08.082Z,29.30
2019-04-25T13:22:53.346Z,29.60
2019-04-25T13:27:54.460Z,29.50
2019-04-25T13:32:56.609Z,29.60
2019-04-25T13:37:41.786Z,30.00
2019-04-25T13:42:29.006Z,30.20
2019-04-25T13:47:14.752Z,29.90
2019-04-25T13:51:59.829Z,29.70
2019-04-25T13:57:06.590Z,29.80
2019-04-25T14:01:51.438Z,29.80
2019-04-25T14:06:37.254Z,29.70
2019-04-25T14:11:23.961Z,29.90
2019-04-25T14:16:43.430Z,29.80
2019-04-25T14:21:29.123Z,30.30
2019-04-25T14:26:14.133Z,30.40
2019-04-25T14:30:59.351Z,30.50
2019-04-25T14:35:44.291Z,29.90
2019-04-25T14:40:30.898Z,30.10
2019-04-25T14:45:18.577Z,30.40
2019-04-25T14:50:09.781Z,30.00
2019-04-25T14:55:17.776Z,29.70
2019-04-25T15:00:04.766Z,29.40
2019-04-25T15:04:52.715Z,29.20
2019-04-25T15:09:37.606Z,29.20
2019-04-25T15:14:23.545Z,29.60
2019-04-25T15:19:11.856Z,29.80
2019-04-25T15:24:14.540Z,29.90
2019-04-25T15:29:00.368Z,29.70
2019-04-25T15:33:50.572Z,29.70
2019-04-25T15:38:44.387Z,29.30
2019-04-25T15:43:44.861Z,29.70
2019-04-25T15:48:37.336Z,29.40
2019-04-25T15:53:26.413Z,29.10
2019-04-25T15:58:22.358Z,28.70
2019-04-25T16:03:08.546Z,28.10
2019-04-25T16:07:55.028Z,27.50
2019-04-25T16:12:40.535Z,27.20
2019-04-25T16:17:32.730Z,27.30
2019-04-25T16:22:24.977Z,27.20
2019-04-25T16:27:11.248Z,28.00
2019-04-25T16:32:00.889Z,28.30
2019-04-25T16:36:49.652Z,28.40
2019-04-25T16:41:42.549Z,27.00
2019-04-25T16:46:30.145Z,26.30
2019-04-25T16:51:18.538Z,25.70
2019-04-25T16:56:09.018Z,25.10
2019-04-25T17:01:09.612Z,25.70
2019-04-25T17:05:55.789Z,26.20
2019-04-25T17:10:41.660Z,25.70
2019-04-25T17:21:06.861Z,24.70
2019-04-25T17:25:52.152Z,24.40
2019-04-25T17:30:45.357Z,24.00
2019-04-25T17:35:46.940Z,23.70
2019-04-25T17:40:35.545Z,23.20
2019-04-25T17:45:29.817Z,22.90
2019-04-25T17:50:16.306Z,22.50
2019-04-25T17:55:07.153Z,22.10
2019-04-25T17:59:52.417Z,21.80
2019-04-25T18:04:40.596Z,21.50
2019-04-25T18:09:27.017Z,21.10
2019-04-25T18:14:12.884Z,20.80
2019-04-25T18:19:15.307Z,20.60
2019-04-25T18:24:23.432Z,20.40
2019-04-25T18:29:21.181Z,20.20
2019-04-25T18:34:12.701Z,19.90
2019-04-25T18:39:25.501Z,19.60
2019-04-25T18:44:11.596Z,19.40
2019-04-25T18:48:58.153Z,19.10
2019-04-25T18:54:01.712Z,19.00
2019-04-25T18:59:14.914Z,18.90
2019-04-25T19:04:11.804Z,18.70
2019-04-25T19:09:00.573Z,18.50
2019-04-25T19:13:49.775Z,18.50
2019-04-25T19:18:36.591Z,18.30
2019-04-25T19:23:25.280Z,17.80
2019-04-25T19:28:18.263Z,17.40
2019-04-25T19:33:07.577Z,17.30
2019-04-25T19:37:55.368Z,17.20
2019-04-25T19:42:45.566Z,17.10
2019-04-25T19:47:32.081Z,17.20
2019-04-25T19:52:17.668Z,17.00
2019-04-25T19:57:03.504Z,16.80
2019-04-25T20:01:50.641Z,16.60
2019-04-25T20:06:53.712Z,16.60
2019-04-25T20:11:45.206Z,16.60
2019-04-25T20:16:33.528Z,16.40
2019-04-25T20:21:25.824Z,16.50
2019-04-25T20:26:11.506Z,16.60
2019-04-25T20:30:56.969Z,16.70
2019-04-25T20:35:42.614Z,16.70
2019-04-25T20:40:27.884Z,16.50
2019-04-25T20:45:12.727Z,16.20
2019-04-25T20:49:57.821Z,15.80
2019-04-25T20:54:46.446Z,15.50
2019-04-25T20:59:35.769Z,15.80
2019-04-25T21:04:42.542Z,16.00
2019-04-25T21:09:27.800Z,16.00
2019-04-25T21:14:27.130Z,15.70
2019-04-25T21:19:13.798Z,15.70
2019-04-25T21:23:59.080Z,15.50
2019-04-25T21:28:43.978Z,15.60
2019-04-25T21:33:29.086Z,15.70
2019-04-25T21:38:15.441Z,16.00
2019-04-25T21:43:05.042Z,16.10
2019-04-25T21:47:54.032Z,16.10
2019-04-25T21:52:39.342Z,16.00
2019-04-25T21:57:24.356Z,15.90
2019-04-25T22:02:09.785Z,16.00
2019-04-25T22:06:56.801Z,15.90
2019-04-25T22:11:42.111Z,15.80
2019-04-25T22:16:27.497Z,15.90
2019-04-25T22:21:12.885Z,16.00
2019-04-25T22:25:58.842Z,16.20
2019-04-25T22:30:45.661Z,16.20
2019-04-25T22:35:35.817Z,16.10
2019-04-25T22:40:21.191Z,16.00
2019-04-25T22:45:07.956Z,16.00
2019-04-25T22:49:52.648Z,15.90
2019-04-25T22:54:37.600Z,15.60
2019-04-25T22:59:22.830Z,15.50
2019-04-25T23:04:13.792Z,15.70
2019-04-25T23:08:58.991Z,15.70
2019-04-25T23:13:43.839Z,15.70
2019-04-25T23:18:28.753Z,15.80
2019-04-25T23:23:13.772Z,16.00
2019-04-25T23:28:04.839Z,16.00
2019-04-25T23:32:50.327Z,15.90
2019-04-25T23:37:35.041Z,15.80
2019-04-25T23:42:19.610Z,15.40
2019-04-25T23:47:04.380Z,15.10
2019-04-25T23:51:49.116Z,14.70
2019-04-25T23:56:33.727Z,14.40
